sensor_id;sensor_type;location;lat;lon;timestamp;temperature;humidity
18317;DHT22;9284;52.298;21.164;2023-06-22T00:01:25;19.60;99.90
18317;DHT22;9284;52.298;21.164;2023-06-22T00:03:55;19.50;99.90
18317;DHT22;9284;52.298;21.164;2023-06-22T00:06:23;19.50;1.00
18317;DHT22;9284;52.298;21.164;2023-06-22T00:08:52;19.40;1.00
18317;DHT22;9284;52.298;21.164;2023-06-22T00:11:20;19.40;1.00
18317;DHT22;9284;52.298;21.164;2023-06-22T00:13:48;19.30;1.00
18317;DHT22;9284;52.298;21.164;2023-06-22T00:16:18;19.30;1.00
18317;DHT22;9284;52.298;21.164;2023-06-22T00:18:46;19.20;1.00
18317;DHT22;9284;52.298;21.164;2023-06-22T00:21:17;19.20;99.90
18317;DHT22;9284;52.298;21.164;2023-06-22T00:23:49;19.20;99.90
18317;DHT22;9284;52.298;21.164;2023-06-22T00:26:19;19.20;99.90
18317;DHT22;9284;52.298;21.164;2023-06-22T00:28:49;19.20;99.90
18317;DHT22;9284;52.298;21.164;2023-06-22T00:31:20;19.10;99.90
18317;DHT22;9284;52.298;21.164;2023-06-22T00:33:48;19.10;99.90
18317;DHT22;9284;52.298;21.164;2023-06-22T00:36:20;19.20;99.90
18317;DHT22;9284;52.298;21.164;2023-06-22T00:38:48;19.10;1.00
18317;DHT22;9284;52.298;21.164;2023-06-22T00:41:18;19.10;1.00
18317;DHT22;9284;52.298;21.164;2023-06-22T00:43:46;19.10;1.00
18317;DHT22;9284;52.298;21.164;2023-06-22T00:46:15;19.10;1.00
18317;DHT22;9284;52.298;21.164;2023-06-22T00:48:43;19.10;1.00
18317;DHT22;9284;52.298;21.164;2023-06-22T00:51:12;19.10;1.00
18317;DHT22;9284;52.298;21.164;2023-06-22T00:53:41;19.10;1.00
18317;DHT22;9284;52.298;21.164;2023-06-22T00:56:11;19.00;1.00
18317;DHT22;9284;52.298;21.164;2023-06-22T00:58:40;19.00;1.00
18317;DHT22;9284;52.298;21.164;2023-06-22T01:01:09;19.00;1.00
18317;DHT22;9284;52.298;21.164;2023-06-22T01:03:37;19.00;1.00
18317;DHT22;9284;52.298;21.164;2023-06-22T01:06:10;18.90;1.00
18317;DHT22;9284;52.298;21.164;2023-06-22T01:08:57;18.90;1.00
18317;DHT22;9284;52.298;21.164;2023-06-22T01:11:35;18.90;1.00
18317;DHT22;9284;52.298;21.164;2023-06-22T01:14:10;18.80;1.00
18317;DHT22;9284;52.298;21.164;2023-06-22T01:16:41;18.80;1.00
18317;DHT22;9284;52.298;21.164;2023-06-22T01:19:29;18.80;1.00
18317;DHT22;9284;52.298;21.164;2023-06-22T01:22:05;18.80;1.00
18317;DHT22;9284;52.298;21.164;2023-06-22T01:24:44;18.80;1.00
18317;DHT22;9284;52.298;21.164;2023-06-22T01:27:36;18.70;1.00
18317;DHT22;9284;52.298;21.164;2023-06-22T01:30:11;18.70;1.00
18317;DHT22;9284;52.298;21.164;2023-06-22T01:32:43;18.70;1.00
18317;DHT22;9284;52.298;21.164;2023-06-22T01:35:15;18.60;1.00
18317;DHT22;9284;52.298;21.164;2023-06-22T01:37:44;18.70;1.00
18317;DHT22;9284;52.298;21.164;2023-06-22T01:40:13;18.60;1.00
18317;DHT22;9284;52.298;21.164;2023-06-22T01:42:43;18.60;1.00
18317;DHT22;9284;52.298;21.164;2023-06-22T01:45:14;18.50;1.00
18317;DHT22;9284;52.298;21.164;2023-06-22T01:47:44;18.50;1.00
18317;DHT22;9284;52.298;21.164;2023-06-22T01:50:12;18.50;1.00
18317;DHT22;9284;52.298;21.164;2023-06-22T01:52:41;18.50;1.00
18317;DHT22;9284;52.298;21.164;2023-06-22T01:55:09;18.40;1.00
18317;DHT22;9284;52.298;21.164;2023-06-22T01:57:39;18.40;1.00
18317;DHT22;9284;52.298;21.164;2023-06-22T02:00:14;18.40;1.00
18317;DHT22;9284;52.298;21.164;2023-06-22T02:02:53;18.50;1.00
18317;DHT22;9284;52.298;21.164;2023-06-22T02:05:24;18.40;1.00
18317;DHT22;9284;52.298;21.164;2023-06-22T02:07:59;18.50;1.00
18317;DHT22;9284;52.298;21.164;2023-06-22T02:10:31;18.40;1.00
18317;DHT22;9284;52.298;21.164;2023-06-22T02:13:04;18.40;1.00
18317;DHT22;9284;52.298;21.164;2023-06-22T02:15:34;18.40;1.00
18317;DHT22;9284;52.298;21.164;2023-06-22T02:18:03;18.40;1.00
18317;DHT22;9284;52.298;21.164;2023-06-22T02:20:32;18.40;1.00
18317;DHT22;9284;52.298;21.164;2023-06-22T02:23:01;18.40;1.00
18317;DHT22;9284;52.298;21.164;2023-06-22T02:25:29;18.40;1.00
18317;DHT22;9284;52.298;21.164;2023-06-22T02:27:59;18.40;1.00
18317;DHT22;9284;52.298;21.164;2023-06-22T02:30:27;18.40;1.00
18317;DHT22;9284;52.298;21.164;2023-06-22T02:32:57;18.40;1.00
18317;DHT22;9284;52.298;21.164;2023-06-22T02:35:27;18.40;1.00
18317;DHT22;9284;52.298;21.164;2023-06-22T02:37:58;18.50;1.00
18317;DHT22;9284;52.298;21.164;2023-06-22T02:40:28;18.50;1.00
18317;DHT22;9284;52.298;21.164;2023-06-22T02:42:58;18.50;1.00
18317;DHT22;9284;52.298;21.164;2023-06-22T02:45:29;18.50;1.00
18317;DHT22;9284;52.298;21.164;2023-06-22T02:47:59;18.50;1.00
18317;DHT22;9284;52.298;21.164;2023-06-22T02:50:29;18.50;1.00
18317;DHT22;9284;52.298;21.164;2023-06-22T02:52:58;18.50;1.00
18317;DHT22;9284;52.298;21.164;2023-06-22T02:55:28;18.60;1.00
18317;DHT22;9284;52.298;21.164;2023-06-22T02:57:58;18.70;1.00
18317;DHT22;9284;52.298;21.164;2023-06-22T03:00:31;18.70;1.00
18317;DHT22;9284;52.298;21.164;2023-06-22T03:03:01;18.80;1.00
18317;DHT22;9284;52.298;21.164;2023-06-22T03:05:30;18.80;1.00
18317;DHT22;9284;52.298;21.164;2023-06-22T03:07:59;18.80;1.00
18317;DHT22;9284;52.298;21.164;2023-06-22T03:10:31;19.00;1.00
18317;DHT22;9284;52.298;21.164;2023-06-22T03:13:00;19.00;1.00
18317;DHT22;9284;52.298;21.164;2023-06-22T03:15:28;19.10;1.00
18317;DHT22;9284;52.298;21.164;2023-06-22T03:17:58;19.20;1.00
18317;DHT22;9284;52.298;21.164;2023-06-22T03:20:28;19.40;1.00
18317;DHT22;9284;52.298;21.164;2023-06-22T03:23:00;19.50;1.00
18317;DHT22;9284;52.298;21.164;2023-06-22T03:25:29;19.60;13.80
18317;DHT22;9284;52.298;21.164;2023-06-22T03:27:57;19.60;12.10
18317;DHT22;9284;52.298;21.164;2023-06-22T03:30:26;19.80;3.80
18317;DHT22;9284;52.298;21.164;2023-06-22T03:32:55;19.80;1.90
18317;DHT22;9284;52.298;21.164;2023-06-22T03:35:23;19.80;1.00
18317;DHT22;9284;52.298;21.164;2023-06-22T03:37:53;19.90;1.00
18317;DHT22;9284;52.298;21.164;2023-06-22T03:40:21;19.90;1.00
18317;DHT22;9284;52.298;21.164;2023-06-22T03:42:50;19.90;1.00
18317;DHT22;9284;52.298;21.164;2023-06-22T03:45:18;20.00;1.00
18317;DHT22;9284;52.298;21.164;2023-06-22T03:47:47;20.00;1.00
18317;DHT22;9284;52.298;21.164;2023-06-22T03:50:15;20.10;1.00
18317;DHT22;9284;52.298;21.164;2023-06-22T03:52:44;20.10;1.00
18317;DHT22;9284;52.298;21.164;2023-06-22T03:55:13;20.10;1.00
18317;DHT22;9284;52.298;21.164;2023-06-22T03:57:42;20.20;1.00
18317;DHT22;9284;52.298;21.164;2023-06-22T04:00:11;20.20;1.00
18317;DHT22;9284;52.298;21.164;2023-06-22T04:02:41;20.20;1.00
18317;DHT22;9284;52.298;21.164;2023-06-22T04:05:09;20.20;1.00
18317;DHT22;9284;52.298;21.164;2023-06-22T04:07:38;20.20;1.00
18317;DHT22;9284;52.298;21.164;2023-06-22T04:10:07;20.30;99.90
18317;DHT22;9284;52.298;21.164;2023-06-22T04:12:40;20.30;99.90
18317;DHT22;9284;52.298;21.164;2023-06-22T04:15:09;20.30;99.90
18317;DHT22;9284;52.298;21.164;2023-06-22T04:17:39;20.30;99.90
18317;DHT22;9284;52.298;21.164;2023-06-22T04:20:08;20.40;99.90
18317;DHT22;9284;52.298;21.164;2023-06-22T04:22:36;20.50;1.00
18317;DHT22;9284;52.298;21.164;2023-06-22T04:25:06;20.60;1.00
18317;DHT22;9284;52.298;21.164;2023-06-22T04:27:35;20.60;1.00
18317;DHT22;9284;52.298;21.164;2023-06-22T04:30:09;20.70;99.90
18317;DHT22;9284;52.298;21.164;2023-06-22T04:32:37;20.80;1.00
18317;DHT22;9284;52.298;21.164;2023-06-22T04:35:07;20.80;1.00
18317;DHT22;9284;52.298;21.164;2023-06-22T04:37:35;20.90;1.00
18317;DHT22;9284;52.298;21.164;2023-06-22T04:40:05;20.90;99.90
18317;DHT22;9284;52.298;21.164;2023-06-22T04:42:34;20.90;99.90
18317;DHT22;9284;52.298;21.164;2023-06-22T04:45:04;21.00;53.10
18317;DHT22;9284;52.298;21.164;2023-06-22T04:47:34;21.10;1.00
18317;DHT22;9284;52.298;21.164;2023-06-22T04:50:06;21.10;1.00
18317;DHT22;9284;52.298;21.164;2023-06-22T04:52:35;21.20;1.00
18317;DHT22;9284;52.298;21.164;2023-06-22T04:55:04;21.30;99.90
18317;DHT22;9284;52.298;21.164;2023-06-22T04:57:32;21.40;1.00
18317;DHT22;9284;52.298;21.164;2023-06-22T05:00:01;21.50;99.90
18317;DHT22;9284;52.298;21.164;2023-06-22T05:02:41;21.70;99.90
18317;DHT22;9284;52.298;21.164;2023-06-22T05:05:09;21.60;99.90
18317;DHT22;9284;52.298;21.164;2023-06-22T05:07:42;21.60;1.00
18317;DHT22;9284;52.298;21.164;2023-06-22T05:10:11;21.60;1.00
18317;DHT22;9284;52.298;21.164;2023-06-22T05:12:40;21.50;1.00
18317;DHT22;9284;52.298;21.164;2023-06-22T05:15:09;21.50;1.00
18317;DHT22;9284;52.298;21.164;2023-06-22T05:17:38;21.50;1.00
18317;DHT22;9284;52.298;21.164;2023-06-22T05:20:12;21.40;99.90
18317;DHT22;9284;52.298;21.164;2023-06-22T05:22:40;21.40;99.90
18317;DHT22;9284;52.298;21.164;2023-06-22T05:25:11;21.50;99.90
18317;DHT22;9284;52.298;21.164;2023-06-22T05:27:39;21.50;1.00
18317;DHT22;9284;52.298;21.164;2023-06-22T05:30:09;21.50;1.00
18317;DHT22;9284;52.298;21.164;2023-06-22T05:32:38;21.60;1.00
18317;DHT22;9284;52.298;21.164;2023-06-22T05:35:07;21.70;1.00
18317;DHT22;9284;52.298;21.164;2023-06-22T05:37:37;21.70;99.90
18317;DHT22;9284;52.298;21.164;2023-06-22T05:40:06;21.80;1.00
18317;DHT22;9284;52.298;21.164;2023-06-22T05:42:36;21.80;99.90
18317;DHT22;9284;52.298;21.164;2023-06-22T05:45:05;21.80;99.90
18317;DHT22;9284;52.298;21.164;2023-06-22T05:47:34;21.90;1.00
18317;DHT22;9284;52.298;21.164;2023-06-22T05:50:03;21.90;1.00
18317;DHT22;9284;52.298;21.164;2023-06-22T05:52:33;21.90;1.00
18317;DHT22;9284;52.298;21.164;2023-06-22T05:55:04;21.90;1.00
18317;DHT22;9284;52.298;21.164;2023-06-22T05:57:32;21.90;1.00
18317;DHT22;9284;52.298;21.164;2023-06-22T06:00:00;22.00;1.00
18317;DHT22;9284;52.298;21.164;2023-06-22T06:02:30;22.10;1.00
18317;DHT22;9284;52.298;21.164;2023-06-22T06:05:00;22.00;99.90
18317;DHT22;9284;52.298;21.164;2023-06-22T06:07:29;22.00;99.90
18317;DHT22;9284;52.298;21.164;2023-06-22T06:10:02;22.00;99.90
18317;DHT22;9284;52.298;21.164;2023-06-22T06:12:33;22.00;1.00
18317;DHT22;9284;52.298;21.164;2023-06-22T06:15:01;22.10;99.90
18317;DHT22;9284;52.298;21.164;2023-06-22T06:17:30;22.10;1.00
18317;DHT22;9284;52.298;21.164;2023-06-22T06:19:59;22.00;1.00
18317;DHT22;9284;52.298;21.164;2023-06-22T06:22:27;22.10;1.00
18317;DHT22;9284;52.298;21.164;2023-06-22T06:24:55;22.00;1.00
18317;DHT22;9284;52.298;21.164;2023-06-22T06:27:25;22.00;1.00
18317;DHT22;9284;52.298;21.164;2023-06-22T06:29:57;21.90;12.40
18317;DHT22;9284;52.298;21.164;2023-06-22T06:32:25;21.90;99.90
18317;DHT22;9284;52.298;21.164;2023-06-22T06:34:53;21.90;99.90
18317;DHT22;9284;52.298;21.164;2023-06-22T06:37:22;21.90;1.00
18317;DHT22;9284;52.298;21.164;2023-06-22T06:39:50;22.00;1.00
18317;DHT22;9284;52.298;21.164;2023-06-22T06:42:18;21.90;1.00
18317;DHT22;9284;52.298;21.164;2023-06-22T06:44:51;22.00;99.90
18317;DHT22;9284;52.298;21.164;2023-06-22T06:47:19;22.00;1.00
18317;DHT22;9284;52.298;21.164;2023-06-22T06:49:47;22.00;99.90
18317;DHT22;9284;52.298;21.164;2023-06-22T06:52:16;22.10;99.90
18317;DHT22;9284;52.298;21.164;2023-06-22T06:54:44;22.10;99.90
18317;DHT22;9284;52.298;21.164;2023-06-22T06:57:12;22.20;1.00
18317;DHT22;9284;52.298;21.164;2023-06-22T06:59:42;22.20;1.00
18317;DHT22;9284;52.298;21.164;2023-06-22T07:02:11;22.40;1.00
18317;DHT22;9284;52.298;21.164;2023-06-22T07:04:41;22.60;1.00
18317;DHT22;9284;52.298;21.164;2023-06-22T07:07:10;22.80;99.90
18317;DHT22;9284;52.298;21.164;2023-06-22T07:09:38;23.10;1.00
18317;DHT22;9284;52.298;21.164;2023-06-22T07:12:07;23.10;99.90
18317;DHT22;9284;52.298;21.164;2023-06-22T07:14:36;23.50;99.90
18317;DHT22;9284;52.298;21.164;2023-06-22T07:17:04;23.80;1.00
18317;DHT22;9284;52.298;21.164;2023-06-22T07:19:36;24.70;1.00
18317;DHT22;9284;52.298;21.164;2023-06-22T07:22:06;24.90;1.00
18317;DHT22;9284;52.298;21.164;2023-06-22T07:24:34;25.30;1.00
18317;DHT22;9284;52.298;21.164;2023-06-22T07:27:03;25.20;1.00
18317;DHT22;9284;52.298;21.164;2023-06-22T07:29:33;24.90;99.90
18317;DHT22;9284;52.298;21.164;2023-06-22T07:32:04;24.90;99.90
18317;DHT22;9284;52.298;21.164;2023-06-22T07:34:32;24.70;1.00
18317;DHT22;9284;52.298;21.164;2023-06-22T07:37:09;24.80;99.90
18317;DHT22;9284;52.298;21.164;2023-06-22T07:39:38;24.50;1.00
18317;DHT22;9284;52.298;21.164;2023-06-22T07:42:17;25.00;1.00
18317;DHT22;9284;52.298;21.164;2023-06-22T07:44:49;26.10;99.90
18317;DHT22;9284;52.298;21.164;2023-06-22T07:47:26;27.20;99.90
18317;DHT22;9284;52.298;21.164;2023-06-22T07:50:09;28.20;99.90
18317;DHT22;9284;52.298;21.164;2023-06-22T07:52:40;27.70;99.90
18317;DHT22;9284;52.298;21.164;2023-06-22T07:55:14;27.60;99.90
18317;DHT22;9284;52.298;21.164;2023-06-22T07:57:55;27.50;99.90
18317;DHT22;9284;52.298;21.164;2023-06-22T08:00:27;27.90;99.90
18317;DHT22;9284;52.298;21.164;2023-06-22T08:03:02;27.90;99.90
18317;DHT22;9284;52.298;21.164;2023-06-22T08:05:32;27.90;99.90
18317;DHT22;9284;52.298;21.164;2023-06-22T08:08:09;28.50;99.90
18317;DHT22;9284;52.298;21.164;2023-06-22T08:10:37;29.40;99.90
18317;DHT22;9284;52.298;21.164;2023-06-22T08:13:12;29.60;99.90
18317;DHT22;9284;52.298;21.164;2023-06-22T08:15:40;29.70;93.90
18317;DHT22;9284;52.298;21.164;2023-06-22T08:18:18;30.00;83.90
18317;DHT22;9284;52.298;21.164;2023-06-22T08:20:50;30.60;72.40
18317;DHT22;9284;52.298;21.164;2023-06-22T08:23:24;30.70;42.00
18317;DHT22;9284;52.298;21.164;2023-06-22T08:25:59;30.60;23.60
18317;DHT22;9284;52.298;21.164;2023-06-22T08:28:29;30.10;17.10
18317;DHT22;9284;52.298;21.164;2023-06-22T08:30:57;30.20;14.40
18317;DHT22;9284;52.298;21.164;2023-06-22T08:33:28;30.10;8.00
18317;DHT22;9284;52.298;21.164;2023-06-22T08:35:58;30.20;3.00
18317;DHT22;9284;52.298;21.164;2023-06-22T08:38:33;29.80;2.40
18317;DHT22;9284;52.298;21.164;2023-06-22T08:41:04;30.10;1.00
18317;DHT22;9284;52.298;21.164;2023-06-22T08:43:45;30.50;1.00
18317;DHT22;9284;52.298;21.164;2023-06-22T08:46:14;30.80;1.00
18317;DHT22;9284;52.298;21.164;2023-06-22T08:48:47;30.70;1.00
18317;DHT22;9284;52.298;21.164;2023-06-22T08:51:26;30.70;1.00
18317;DHT22;9284;52.298;21.164;2023-06-22T08:53:58;30.40;1.00
18317;DHT22;9284;52.298;21.164;2023-06-22T08:56:26;30.70;1.00
18317;DHT22;9284;52.298;21.164;2023-06-22T08:58:54;30.90;1.00
18317;DHT22;9284;52.298;21.164;2023-06-22T09:01:24;31.10;1.00
18317;DHT22;9284;52.298;21.164;2023-06-22T09:03:52;31.20;1.00
18317;DHT22;9284;52.298;21.164;2023-06-22T09:06:25;31.00;1.00
18317;DHT22;9284;52.298;21.164;2023-06-22T09:08:55;31.30;1.00
18317;DHT22;9284;52.298;21.164;2023-06-22T09:11:24;31.00;1.00
18317;DHT22;9284;52.298;21.164;2023-06-22T09:13:53;30.80;1.00
18317;DHT22;9284;52.298;21.164;2023-06-22T09:16:21;30.80;1.00
18317;DHT22;9284;52.298;21.164;2023-06-22T09:18:50;30.80;1.00
18317;DHT22;9284;52.298;21.164;2023-06-22T09:21:18;30.70;1.00
18317;DHT22;9284;52.298;21.164;2023-06-22T09:23:48;30.90;1.00
18317;DHT22;9284;52.298;21.164;2023-06-22T09:26:20;30.80;1.00
18317;DHT22;9284;52.298;21.164;2023-06-22T09:28:51;31.00;1.00
18317;DHT22;9284;52.298;21.164;2023-06-22T09:31:20;30.90;1.00
18317;DHT22;9284;52.298;21.164;2023-06-22T09:33:52;30.80;1.00
18317;DHT22;9284;52.298;21.164;2023-06-22T09:36:21;31.10;1.00
18317;DHT22;9284;52.298;21.164;2023-06-22T09:38:53;30.90;1.00
18317;DHT22;9284;52.298;21.164;2023-06-22T09:41:25;31.30;1.00
18317;DHT22;9284;52.298;21.164;2023-06-22T09:43:55;31.50;1.00
18317;DHT22;9284;52.298;21.164;2023-06-22T09:46:23;31.10;1.00
18317;DHT22;9284;52.298;21.164;2023-06-22T09:48:52;31.30;1.00
18317;DHT22;9284;52.298;21.164;2023-06-22T09:51:21;31.00;1.00
18317;DHT22;9284;52.298;21.164;2023-06-22T09:53:50;31.00;1.00
18317;DHT22;9284;52.298;21.164;2023-06-22T09:56:19;30.60;1.00
18317;DHT22;9284;52.298;21.164;2023-06-22T09:58:59;31.20;1.00
18317;DHT22;9284;52.298;21.164;2023-06-22T10:01:44;30.80;1.00
18317;DHT22;9284;52.298;21.164;2023-06-22T10:04:12;30.80;1.00
18317;DHT22;9284;52.298;21.164;2023-06-22T10:06:41;30.90;1.00
18317;DHT22;9284;52.298;21.164;2023-06-22T10:09:09;31.00;1.00
18317;DHT22;9284;52.298;21.164;2023-06-22T10:11:39;31.00;1.00
18317;DHT22;9284;52.298;21.164;2023-06-22T10:14:09;31.20;1.00
18317;DHT22;9284;52.298;21.164;2023-06-22T10:16:39;31.20;1.00
18317;DHT22;9284;52.298;21.164;2023-06-22T10:19:08;31.40;1.00
18317;DHT22;9284;52.298;21.164;2023-06-22T10:21:37;31.50;1.00
18317;DHT22;9284;52.298;21.164;2023-06-22T10:24:05;31.70;1.00
18317;DHT22;9284;52.298;21.164;2023-06-22T10:26:34;32.10;1.00
18317;DHT22;9284;52.298;21.164;2023-06-22T10:29:03;31.50;1.00
18317;DHT22;9284;52.298;21.164;2023-06-22T10:31:35;31.50;1.00
18317;DHT22;9284;52.298;21.164;2023-06-22T10:34:04;31.50;1.00
18317;DHT22;9284;52.298;21.164;2023-06-22T10:36:32;31.50;1.00
18317;DHT22;9284;52.298;21.164;2023-06-22T10:39:00;31.30;1.00
18317;DHT22;9284;52.298;21.164;2023-06-22T10:41:30;31.50;1.00
18317;DHT22;9284;52.298;21.164;2023-06-22T10:43:58;31.20;1.00
18317;DHT22;9284;52.298;21.164;2023-06-22T10:46:26;31.70;1.00
18317;DHT22;9284;52.298;21.164;2023-06-22T10:48:56;31.50;1.00
18317;DHT22;9284;52.298;21.164;2023-06-22T10:51:25;31.40;1.00
18317;DHT22;9284;52.298;21.164;2023-06-22T10:53:55;31.30;1.00
18317;DHT22;9284;52.298;21.164;2023-06-22T10:56:23;31.60;1.00
18317;DHT22;9284;52.298;21.164;2023-06-22T10:58:52;31.50;1.00
18317;DHT22;9284;52.298;21.164;2023-06-22T11:01:20;31.40;1.00
18317;DHT22;9284;52.298;21.164;2023-06-22T11:04:03;31.00;1.00
18317;DHT22;9284;52.298;21.164;2023-06-22T11:06:32;31.10;1.00
18317;DHT22;9284;52.298;21.164;2023-06-22T11:09:00;31.20;1.00
18317;DHT22;9284;52.298;21.164;2023-06-22T11:11:49;30.90;1.00
18317;DHT22;9284;52.298;21.164;2023-06-22T11:14:20;31.00;1.00
18317;DHT22;9284;52.298;21.164;2023-06-22T11:16:49;31.00;1.00
18317;DHT22;9284;52.298;21.164;2023-06-22T11:19:19;31.10;1.00
18317;DHT22;9284;52.298;21.164;2023-06-22T11:21:47;31.20;1.00
18317;DHT22;9284;52.298;21.164;2023-06-22T11:24:16;31.20;1.00
18317;DHT22;9284;52.298;21.164;2023-06-22T11:26:44;31.20;1.00
18317;DHT22;9284;52.298;21.164;2023-06-22T11:29:13;31.10;1.00
18317;DHT22;9284;52.298;21.164;2023-06-22T11:31:58;31.40;1.00
18317;DHT22;9284;52.298;21.164;2023-06-22T11:34:28;31.30;1.00
18317;DHT22;9284;52.298;21.164;2023-06-22T11:36:56;31.00;1.00
18317;DHT22;9284;52.298;21.164;2023-06-22T11:39:24;30.80;1.00
18317;DHT22;9284;52.298;21.164;2023-06-22T11:42:09;30.30;1.00
18317;DHT22;9284;52.298;21.164;2023-06-22T11:44:37;30.40;1.00
18317;DHT22;9284;52.298;21.164;2023-06-22T11:47:06;30.20;1.00
18317;DHT22;9284;52.298;21.164;2023-06-22T11:49:35;30.20;1.00
18317;DHT22;9284;52.298;21.164;2023-06-22T11:52:04;29.80;1.00
18317;DHT22;9284;52.298;21.164;2023-06-22T11:54:33;29.70;1.00
18317;DHT22;9284;52.298;21.164;2023-06-22T11:57:01;29.90;1.00
18317;DHT22;9284;52.298;21.164;2023-06-22T11:59:30;30.10;1.00
18317;DHT22;9284;52.298;21.164;2023-06-22T12:01:58;30.20;1.00
18317;DHT22;9284;52.298;21.164;2023-06-22T12:04:27;30.40;1.00
18317;DHT22;9284;52.298;21.164;2023-06-22T12:06:56;30.10;1.00
18317;DHT22;9284;52.298;21.164;2023-06-22T12:09:25;30.10;1.00
18317;DHT22;9284;52.298;21.164;2023-06-22T12:11:54;30.10;1.00
18317;DHT22;9284;52.298;21.164;2023-06-22T12:14:22;30.10;1.00
18317;DHT22;9284;52.298;21.164;2023-06-22T12:16:50;30.00;1.00
18317;DHT22;9284;52.298;21.164;2023-06-22T12:19:19;30.10;1.00
18317;DHT22;9284;52.298;21.164;2023-06-22T12:21:47;30.00;1.00
18317;DHT22;9284;52.298;21.164;2023-06-22T12:24:17;29.70;1.00
18317;DHT22;9284;52.298;21.164;2023-06-22T12:26:45;29.70;1.00
18317;DHT22;9284;52.298;21.164;2023-06-22T12:29:13;29.50;1.00
18317;DHT22;9284;52.298;21.164;2023-06-22T12:31:42;29.30;1.00
18317;DHT22;9284;52.298;21.164;2023-06-22T12:34:10;29.40;1.00
18317;DHT22;9284;52.298;21.164;2023-06-22T12:36:40;29.30;1.00
18317;DHT22;9284;52.298;21.164;2023-06-22T12:39:15;29.30;1.00
18317;DHT22;9284;52.298;21.164;2023-06-22T12:41:48;29.50;1.00
18317;DHT22;9284;52.298;21.164;2023-06-22T12:44:19;29.50;1.00
18317;DHT22;9284;52.298;21.164;2023-06-22T12:46:49;29.50;1.00
18317;DHT22;9284;52.298;21.164;2023-06-22T12:49:18;29.70;1.00
18317;DHT22;9284;52.298;21.164;2023-06-22T12:51:47;29.80;1.00
18317;DHT22;9284;52.298;21.164;2023-06-22T12:54:16;29.70;1.00
18317;DHT22;9284;52.298;21.164;2023-06-22T12:56:46;29.60;1.00
18317;DHT22;9284;52.298;21.164;2023-06-22T12:59:14;29.60;1.00
18317;DHT22;9284;52.298;21.164;2023-06-22T13:01:44;29.20;1.00
18317;DHT22;9284;52.298;21.164;2023-06-22T13:04:13;29.50;1.00
18317;DHT22;9284;52.298;21.164;2023-06-22T13:06:42;29.60;1.00
18317;DHT22;9284;52.298;21.164;2023-06-22T13:09:11;29.70;1.00
18317;DHT22;9284;52.298;21.164;2023-06-22T13:11:43;29.80;1.00
18317;DHT22;9284;52.298;21.164;2023-06-22T13:14:12;30.10;1.00
18317;DHT22;9284;52.298;21.164;2023-06-22T13:16:43;29.90;1.00
18317;DHT22;9284;52.298;21.164;2023-06-22T13:19:11;29.70;1.00
18317;DHT22;9284;52.298;21.164;2023-06-22T13:21:40;30.00;1.00
18317;DHT22;9284;52.298;21.164;2023-06-22T13:24:08;30.30;1.00
18317;DHT22;9284;52.298;21.164;2023-06-22T13:26:36;30.40;1.00
18317;DHT22;9284;52.298;21.164;2023-06-22T13:29:05;30.30;1.00
18317;DHT22;9284;52.298;21.164;2023-06-22T13:31:34;30.00;1.00
18317;DHT22;9284;52.298;21.164;2023-06-22T13:34:03;29.50;1.00
18317;DHT22;9284;52.298;21.164;2023-06-22T13:36:31;29.30;1.00
18317;DHT22;9284;52.298;21.164;2023-06-22T13:39:00;28.80;1.00
18317;DHT22;9284;52.298;21.164;2023-06-22T13:41:28;28.60;1.00
18317;DHT22;9284;52.298;21.164;2023-06-22T13:43:56;28.70;1.00
18317;DHT22;9284;52.298;21.164;2023-06-22T13:46:25;28.80;1.00
18317;DHT22;9284;52.298;21.164;2023-06-22T13:48:54;28.80;1.00
18317;DHT22;9284;52.298;21.164;2023-06-22T13:51:23;28.60;1.00
18317;DHT22;9284;52.298;21.164;2023-06-22T13:53:51;28.50;1.00
18317;DHT22;9284;52.298;21.164;2023-06-22T13:56:20;28.40;1.00
18317;DHT22;9284;52.298;21.164;2023-06-22T13:58:48;28.40;1.00
18317;DHT22;9284;52.298;21.164;2023-06-22T14:01:17;28.30;1.00
18317;DHT22;9284;52.298;21.164;2023-06-22T14:03:45;28.20;1.00
18317;DHT22;9284;52.298;21.164;2023-06-22T14:06:16;28.10;1.00
18317;DHT22;9284;52.298;21.164;2023-06-22T14:08:44;28.20;1.00
18317;DHT22;9284;52.298;21.164;2023-06-22T14:11:12;28.10;1.00
18317;DHT22;9284;52.298;21.164;2023-06-22T14:13:41;28.00;1.00
18317;DHT22;9284;52.298;21.164;2023-06-22T14:16:10;27.90;1.00
18317;DHT22;9284;52.298;21.164;2023-06-22T14:18:38;27.70;1.00
18317;DHT22;9284;52.298;21.164;2023-06-22T14:21:07;27.80;1.00
18317;DHT22;9284;52.298;21.164;2023-06-22T14:23:37;27.90;1.00
18317;DHT22;9284;52.298;21.164;2023-06-22T14:26:05;28.00;1.00
18317;DHT22;9284;52.298;21.164;2023-06-22T14:28:33;28.10;1.00
18317;DHT22;9284;52.298;21.164;2023-06-22T14:31:02;28.30;1.00
18317;DHT22;9284;52.298;21.164;2023-06-22T14:33:30;28.40;1.00
18317;DHT22;9284;52.298;21.164;2023-06-22T14:35:58;28.30;1.00
18317;DHT22;9284;52.298;21.164;2023-06-22T14:38:27;28.40;1.00
18317;DHT22;9284;52.298;21.164;2023-06-22T14:40:57;28.40;1.00
18317;DHT22;9284;52.298;21.164;2023-06-22T14:43:43;28.30;1.00
18317;DHT22;9284;52.298;21.164;2023-06-22T14:46:13;28.20;1.00
18317;DHT22;9284;52.298;21.164;2023-06-22T14:48:42;28.30;1.00
18317;DHT22;9284;52.298;21.164;2023-06-22T14:51:12;28.40;1.00
18317;DHT22;9284;52.298;21.164;2023-06-22T14:53:44;28.50;1.00
18317;DHT22;9284;52.298;21.164;2023-06-22T14:56:14;28.50;1.00
18317;DHT22;9284;52.298;21.164;2023-06-22T14:58:43;28.60;1.00
18317;DHT22;9284;52.298;21.164;2023-06-22T15:01:16;28.50;1.00
18317;DHT22;9284;52.298;21.164;2023-06-22T15:03:44;28.50;1.00
18317;DHT22;9284;52.298;21.164;2023-06-22T15:06:13;28.60;1.00
18317;DHT22;9284;52.298;21.164;2023-06-22T15:08:41;28.60;1.00
18317;DHT22;9284;52.298;21.164;2023-06-22T15:11:10;28.40;1.00
18317;DHT22;9284;52.298;21.164;2023-06-22T15:13:41;28.40;1.00
18317;DHT22;9284;52.298;21.164;2023-06-22T15:16:09;28.20;1.00
18317;DHT22;9284;52.298;21.164;2023-06-22T15:18:38;28.10;1.00
18317;DHT22;9284;52.298;21.164;2023-06-22T15:21:08;27.80;1.00
18317;DHT22;9284;52.298;21.164;2023-06-22T15:23:36;27.70;1.00
18317;DHT22;9284;52.298;21.164;2023-06-22T15:26:04;27.50;1.00
18317;DHT22;9284;52.298;21.164;2023-06-22T15:28:33;27.50;1.00
18317;DHT22;9284;52.298;21.164;2023-06-22T15:31:06;27.40;1.00
18317;DHT22;9284;52.298;21.164;2023-06-22T15:33:34;27.40;1.00
18317;DHT22;9284;52.298;21.164;2023-06-22T15:36:04;27.40;1.00
18317;DHT22;9284;52.298;21.164;2023-06-22T15:38:34;27.50;1.00
18317;DHT22;9284;52.298;21.164;2023-06-22T15:41:02;27.70;1.00
18317;DHT22;9284;52.298;21.164;2023-06-22T15:43:34;27.70;1.00
18317;DHT22;9284;52.298;21.164;2023-06-22T15:46:02;27.70;1.00
18317;DHT22;9284;52.298;21.164;2023-06-22T15:48:32;27.90;1.00
18317;DHT22;9284;52.298;21.164;2023-06-22T15:51:03;27.80;1.00
18317;DHT22;9284;52.298;21.164;2023-06-22T15:53:31;27.70;1.00
18317;DHT22;9284;52.298;21.164;2023-06-22T15:56:07;27.70;1.00
18317;DHT22;9284;52.298;21.164;2023-06-22T15:58:36;27.70;1.00
18317;DHT22;9284;52.298;21.164;2023-06-22T16:01:07;27.70;1.00